sensor_id;sensor_type;location;lat;lon;timestamp;P1;durP1;ratioP1;P2;durP2;ratioP2
10045;SDS011;5063;50.878;4.742;2022-09-16T00:01:18;8.53;;;1.67;;
10045;SDS011;5063;50.878;4.742;2022-09-16T00:03:45;4.70;;;1.60;;
10045;SDS011;5063;50.878;4.742;2022-09-16T00:06:18;3.53;;;1.73;;
10045;SDS011;5063;50.878;4.742;2022-09-16T00:08:46;4.00;;;1.23;;
10045;SDS011;5063;50.878;4.742;2022-09-16T00:11:12;4.30;;;1.40;;
10045;SDS011;5063;50.878;4.742;2022-09-16T00:13:38;5.30;;;1.30;;
10045;SDS011;5063;50.878;4.742;2022-09-16T00:16:09;5.10;;;1.67;;
10045;SDS011;5063;50.878;4.742;2022-09-16T00:18:36;4.03;;;1.37;;
10045;SDS011;5063;50.878;4.742;2022-09-16T00:21:05;5.87;;;1.73;;
10045;SDS011;5063;50.878;4.742;2022-09-16T00:23:33;3.10;;;1.30;;
10045;SDS011;5063;50.878;4.742;2022-09-16T00:25:59;5.60;;;1.90;;
10045;SDS011;5063;50.878;4.742;2022-09-16T00:28:25;6.40;;;1.60;;
10045;SDS011;5063;50.878;4.742;2022-09-16T00:30:51;4.70;;;1.40;;
10045;SDS011;5063;50.878;4.742;2022-09-16T00:33:17;3.57;;;1.63;;
10045;SDS011;5063;50.878;4.742;2022-09-16T00:35:44;3.87;;;1.33;;
10045;SDS011;5063;50.878;4.742;2022-09-16T00:38:11;3.57;;;1.63;;
10045;SDS011;5063;50.878;4.742;2022-09-16T00:40:47;1.60;;;1.37;;
10045;SDS011;5063;50.878;4.742;2022-09-16T00:43:14;2.70;;;1.30;;
10045;SDS011;5063;50.878;4.742;2022-09-16T00:45:47;5.03;;;1.73;;
10045;SDS011;5063;50.878;4.742;2022-09-16T00:48:20;3.23;;;1.37;;
10045;SDS011;5063;50.878;4.742;2022-09-16T00:50:49;3.73;;;1.73;;
10045;SDS011;5063;50.878;4.742;2022-09-16T00:53:42;2.57;;;1.30;;
10045;SDS011;5063;50.878;4.742;2022-09-16T00:56:08;3.70;;;1.57;;
10045;SDS011;5063;50.878;4.742;2022-09-16T00:58:42;6.23;;;1.90;;
10045;SDS011;5063;50.878;4.742;2022-09-16T01:01:11;3.97;;;1.37;;
10045;SDS011;5063;50.878;4.742;2022-09-16T01:03:39;4.13;;;1.43;;
10045;SDS011;5063;50.878;4.742;2022-09-16T01:06:14;5.57;;;1.77;;
10045;SDS011;5063;50.878;4.742;2022-09-16T01:08:42;2.90;;;1.57;;
10045;SDS011;5063;50.878;4.742;2022-09-16T01:11:09;4.10;;;1.23;;
10045;SDS011;5063;50.878;4.742;2022-09-16T01:13:35;4.00;;;1.40;;
10045;SDS011;5063;50.878;4.742;2022-09-16T01:29:05;2.60;;;1.20;;
10045;SDS011;5063;50.878;4.742;2022-09-16T01:31:54;7.13;;;1.80;;
10045;SDS011;5063;50.878;4.742;2022-09-16T01:53:44;3.03;;;1.90;;
10045;SDS011;5063;50.878;4.742;2022-09-16T02:02:23;5.07;;;1.77;;
10045;SDS011;5063;50.878;4.742;2022-09-16T02:04:17;5.93;;;1.63;;
10045;SDS011;5063;50.878;4.742;2022-09-16T02:06:50;4.90;;;1.80;;
10045;SDS011;5063;50.878;4.742;2022-09-16T02:09:22;6.67;;;2.00;;
10045;SDS011;5063;50.878;4.742;2022-09-16T02:11:54;7.20;;;1.70;;
10045;SDS011;5063;50.878;4.742;2022-09-16T02:14:23;4.63;;;1.73;;
10045;SDS011;5063;50.878;4.742;2022-09-16T02:16:54;3.87;;;1.63;;
10045;SDS011;5063;50.878;4.742;2022-09-16T02:19:28;5.70;;;2.10;;
10045;SDS011;5063;50.878;4.742;2022-09-16T02:22:23;4.83;;;1.77;;
10045;SDS011;5063;50.878;4.742;2022-09-16T02:24:59;4.87;;;1.77;;
10045;SDS011;5063;50.878;4.742;2022-09-16T02:27:27;4.53;;;1.60;;
10045;SDS011;5063;50.878;4.742;2022-09-16T02:29:59;6.40;;;1.60;;
10045;SDS011;5063;50.878;4.742;2022-09-16T02:32:29;8.10;;;1.80;;
10045;SDS011;5063;50.878;4.742;2022-09-16T02:34:58;8.00;;;1.70;;
10045;SDS011;5063;50.878;4.742;2022-09-16T02:40:15;5.73;;;1.73;;
10045;SDS011;5063;50.878;4.742;2022-09-16T02:42:44;4.53;;;1.57;;
10045;SDS011;5063;50.878;4.742;2022-09-16T02:45:10;4.30;;;1.30;;
10045;SDS011;5063;50.878;4.742;2022-09-16T02:47:41;2.93;;;1.70;;
10045;SDS011;5063;50.878;4.742;2022-09-16T02:50:38;4.83;;;1.93;;
10045;SDS011;5063;50.878;4.742;2022-09-16T02:58:16;6.23;;;1.70;;
10045;SDS011;5063;50.878;4.742;2022-09-16T03:00:44;5.03;;;1.50;;
10045;SDS011;5063;50.878;4.742;2022-09-16T03:03:13;3.03;;;1.37;;
10045;SDS011;5063;50.878;4.742;2022-09-16T03:06:40;4.97;;;1.87;;
10045;SDS011;5063;50.878;4.742;2022-09-16T03:08:38;4.80;;;1.33;;
10045;SDS011;5063;50.878;4.742;2022-09-16T03:11:07;4.63;;;1.60;;
10045;SDS011;5063;50.878;4.742;2022-09-16T03:19:34;5.53;;;1.33;;
10045;SDS011;5063;50.878;4.742;2022-09-16T03:22:08;5.87;;;1.80;;
10045;SDS011;5063;50.878;4.742;2022-09-16T03:27:35;2.80;;;1.30;;
10045;SDS011;5063;50.878;4.742;2022-09-16T03:30:25;3.50;;;1.30;;
10045;SDS011;5063;50.878;4.742;2022-09-16T03:32:58;7.53;;;1.70;;
10045;SDS011;5063;50.878;4.742;2022-09-16T03:35:30;6.07;;;1.97;;
10045;SDS011;5063;50.878;4.742;2022-09-16T03:38:02;4.33;;;1.33;;
10045;SDS011;5063;50.878;4.742;2022-09-16T03:40:32;3.67;;;1.50;;
10045;SDS011;5063;50.878;4.742;2022-09-16T03:42:59;4.87;;;1.30;;
10045;SDS011;5063;50.878;4.742;2022-09-16T03:45:24;4.33;;;1.47;;
10045;SDS011;5063;50.878;4.742;2022-09-16T03:47:51;5.50;;;1.60;;
10045;SDS011;5063;50.878;4.742;2022-09-16T03:50:17;3.30;;;1.30;;
10045;SDS011;5063;50.878;4.742;2022-09-16T03:52:44;12.47;;;1.53;;
10045;SDS011;5063;50.878;4.742;2022-09-16T03:55:10;3.57;;;1.20;;
10045;SDS011;5063;50.878;4.742;2022-09-16T03:57:36;2.43;;;1.20;;
10045;SDS011;5063;50.878;4.742;2022-09-16T04:00:03;2.37;;;1.10;;
10045;SDS011;5063;50.878;4.742;2022-09-16T04:02:29;2.87;;;1.30;;
10045;SDS011;5063;50.878;4.742;2022-09-16T04:04:55;3.47;;;1.73;;
10045;SDS011;5063;50.878;4.742;2022-09-16T04:07:21;1.80;;;0.97;;
10045;SDS011;5063;50.878;4.742;2022-09-16T04:09:46;3.00;;;1.53;;
10045;SDS011;5063;50.878;4.742;2022-09-16T04:12:12;5.17;;;1.50;;
10045;SDS011;5063;50.878;4.742;2022-09-16T04:14:38;5.37;;;1.30;;
10045;SDS011;5063;50.878;4.742;2022-09-16T04:17:04;3.10;;;1.17;;
10045;SDS011;5063;50.878;4.742;2022-09-16T04:19:30;6.80;;;1.73;;
10045;SDS011;5063;50.878;4.742;2022-09-16T04:21:57;3.47;;;1.20;;
10045;SDS011;5063;50.878;4.742;2022-09-16T04:24:22;2.13;;;1.10;;
10045;SDS011;5063;50.878;4.742;2022-09-16T04:26:48;3.30;;;1.80;;
10045;SDS011;5063;50.878;4.742;2022-09-16T04:29:14;2.47;;;1.37;;
10045;SDS011;5063;50.878;4.742;2022-09-16T04:31:41;7.33;;;1.70;;
10045;SDS011;5063;50.878;4.742;2022-09-16T04:34:07;3.60;;;1.20;;
10045;SDS011;5063;50.878;4.742;2022-09-16T04:36:36;4.97;;;1.10;;
10045;SDS011;5063;50.878;4.742;2022-09-16T04:39:02;2.63;;;1.47;;
10045;SDS011;5063;50.878;4.742;2022-09-16T04:41:28;4.13;;;1.57;;
10045;SDS011;5063;50.878;4.742;2022-09-16T04:43:54;4.47;;;1.70;;
10045;SDS011;5063;50.878;4.742;2022-09-16T04:46:22;4.80;;;1.30;;
10045;SDS011;5063;50.878;4.742;2022-09-16T04:48:49;4.00;;;1.03;;
10045;SDS011;5063;50.878;4.742;2022-09-16T04:51:16;2.60;;;1.50;;
10045;SDS011;5063;50.878;4.742;2022-09-16T04:53:44;5.00;;;1.00;;
10045;SDS011;5063;50.878;4.742;2022-09-16T04:56:20;2.93;;;1.43;;
10045;SDS011;5063;50.878;4.742;2022-09-16T04:58:49;2.70;;;1.10;;
10045;SDS011;5063;50.878;4.742;2022-09-16T05:01:17;5.13;;;1.60;;
10045;SDS011;5063;50.878;4.742;2022-09-16T05:03:45;4.63;;;1.40;;
10045;SDS011;5063;50.878;4.742;2022-09-16T05:06:14;3.03;;;1.00;;
10045;SDS011;5063;50.878;4.742;2022-09-16T05:08:41;5.70;;;1.43;;
10045;SDS011;5063;50.878;4.742;2022-09-16T05:11:08;9.60;;;1.30;;
10045;SDS011;5063;50.878;4.742;2022-09-16T05:13:36;1.83;;;1.00;;
10045;SDS011;5063;50.878;4.742;2022-09-16T05:16:12;3.77;;;1.03;;
10045;SDS011;5063;50.878;4.742;2022-09-16T05:18:39;1.47;;;1.10;;
10045;SDS011;5063;50.878;4.742;2022-09-16T05:21:07;4.73;;;1.10;;
10045;SDS011;5063;50.878;4.742;2022-09-16T05:23:35;1.93;;;1.03;;
10045;SDS011;5063;50.878;4.742;2022-09-16T05:26:02;3.90;;;1.10;;
10045;SDS011;5063;50.878;4.742;2022-09-16T05:28:30;4.97;;;1.27;;
10045;SDS011;5063;50.878;4.742;2022-09-16T05:31:06;4.47;;;1.17;;
10045;SDS011;5063;50.878;4.742;2022-09-16T05:33:33;4.07;;;0.70;;
10045;SDS011;5063;50.878;4.742;2022-09-16T05:36:05;4.07;;;1.30;;
10045;SDS011;5063;50.878;4.742;2022-09-16T05:38:32;4.50;;;1.30;;
10045;SDS011;5063;50.878;4.742;2022-09-16T05:40:59;4.60;;;1.57;;
10045;SDS011;5063;50.878;4.742;2022-09-16T05:43:25;2.07;;;1.40;;
10045;SDS011;5063;50.878;4.742;2022-09-16T05:45:52;3.90;;;1.30;;
10045;SDS011;5063;50.878;4.742;2022-09-16T05:48:19;3.83;;;0.87;;
10045;SDS011;5063;50.878;4.742;2022-09-16T05:53:22;4.70;;;1.57;;
10045;SDS011;5063;50.878;4.742;2022-09-16T05:55:59;4.43;;;1.27;;
10045;SDS011;5063;50.878;4.742;2022-09-16T05:58:30;3.10;;;0.87;;
10045;SDS011;5063;50.878;4.742;2022-09-16T06:00:58;5.53;;;1.33;;
10045;SDS011;5063;50.878;4.742;2022-09-16T06:03:31;2.20;;;0.90;;
10045;SDS011;5063;50.878;4.742;2022-09-16T06:06:12;1.20;;;0.87;;
10045;SDS011;5063;50.878;4.742;2022-09-16T06:08:38;5.50;;;1.43;;
10045;SDS011;5063;50.878;4.742;2022-09-16T06:11:06;4.57;;;1.20;;
10045;SDS011;5063;50.878;4.742;2022-09-16T06:13:33;4.03;;;1.50;;
10045;SDS011;5063;50.878;4.742;2022-09-16T06:16:00;4.30;;;1.47;;
10045;SDS011;5063;50.878;4.742;2022-09-16T06:18:26;2.50;;;1.30;;
10045;SDS011;5063;50.878;4.742;2022-09-16T06:20:54;6.07;;;1.43;;
10045;SDS011;5063;50.878;4.742;2022-09-16T06:23:21;2.10;;;1.20;;
10045;SDS011;5063;50.878;4.742;2022-09-16T06:25:47;3.67;;;1.40;;
10045;SDS011;5063;50.878;4.742;2022-09-16T06:28:14;3.37;;;1.13;;
10045;SDS011;5063;50.878;4.742;2022-09-16T06:30:40;5.13;;;1.33;;
10045;SDS011;5063;50.878;4.742;2022-09-16T06:33:06;1.87;;;1.03;;
10045;SDS011;5063;50.878;4.742;2022-09-16T06:35:33;1.83;;;1.33;;
10045;SDS011;5063;50.878;4.742;2022-09-16T06:38:00;3.30;;;1.30;;
10045;SDS011;5063;50.878;4.742;2022-09-16T06:40:26;2.23;;;1.00;;
10045;SDS011;5063;50.878;4.742;2022-09-16T06:42:52;2.83;;;1.60;;
10045;SDS011;5063;50.878;4.742;2022-09-16T06:45:19;5.37;;;1.63;;
10045;SDS011;5063;50.878;4.742;2022-09-16T06:47:46;4.73;;;1.50;;
10045;SDS011;5063;50.878;4.742;2022-09-16T06:50:11;5.67;;;1.23;;
10045;SDS011;5063;50.878;4.742;2022-09-16T06:52:37;2.47;;;1.20;;
10045;SDS011;5063;50.878;4.742;2022-09-16T06:55:03;2.30;;;1.20;;
10045;SDS011;5063;50.878;4.742;2022-09-16T06:57:29;1.50;;;1.10;;
10045;SDS011;5063;50.878;4.742;2022-09-16T06:59:55;2.27;;;1.13;;
10045;SDS011;5063;50.878;4.742;2022-09-16T07:02:21;2.93;;;1.10;;
10045;SDS011;5063;50.878;4.742;2022-09-16T07:04:47;1.70;;;1.40;;
10045;SDS011;5063;50.878;4.742;2022-09-16T07:07:14;2.60;;;1.40;;
10045;SDS011;5063;50.878;4.742;2022-09-16T07:09:42;2.63;;;1.30;;
10045;SDS011;5063;50.878;4.742;2022-09-16T07:12:08;3.27;;;1.20;;
10045;SDS011;5063;50.878;4.742;2022-09-16T07:14:34;2.27;;;1.07;;
10045;SDS011;5063;50.878;4.742;2022-09-16T07:17:00;2.93;;;1.17;;
10045;SDS011;5063;50.878;4.742;2022-09-16T07:19:26;3.63;;;1.10;;
10045;SDS011;5063;50.878;4.742;2022-09-16T07:21:51;4.47;;;1.37;;
10045;SDS011;5063;50.878;4.742;2022-09-16T07:24:17;3.03;;;1.57;;
10045;SDS011;5063;50.878;4.742;2022-09-16T07:26:43;4.30;;;1.20;;
10045;SDS011;5063;50.878;4.742;2022-09-16T07:29:14;1.87;;;1.00;;
10045;SDS011;5063;50.878;4.742;2022-09-16T07:31:41;2.43;;;1.00;;
10045;SDS011;5063;50.878;4.742;2022-09-16T07:34:07;4.33;;;1.10;;
10045;SDS011;5063;50.878;4.742;2022-09-16T07:36:38;3.60;;;1.20;;
10045;SDS011;5063;50.878;4.742;2022-09-16T07:39:09;2.07;;;1.17;;
10045;SDS011;5063;50.878;4.742;2022-09-16T07:41:38;3.07;;;1.00;;
10045;SDS011;5063;50.878;4.742;2022-09-16T07:44:06;0.83;;;0.80;;
10045;SDS011;5063;50.878;4.742;2022-09-16T07:46:35;2.63;;;1.30;;
10045;SDS011;5063;50.878;4.742;2022-09-16T07:49:02;4.03;;;0.97;;
10045;SDS011;5063;50.878;4.742;2022-09-16T07:51:30;2.60;;;1.00;;
10045;SDS011;5063;50.878;4.742;2022-09-16T07:54:00;3.77;;;1.30;;
10045;SDS011;5063;50.878;4.742;2022-09-16T07:56:28;2.47;;;1.43;;
10045;SDS011;5063;50.878;4.742;2022-09-16T07:58:55;3.73;;;1.23;;
10045;SDS011;5063;50.878;4.742;2022-09-16T08:01:22;7.27;;;1.50;;
10045;SDS011;5063;50.878;4.742;2022-09-16T08:03:48;3.10;;;1.50;;
10045;SDS011;5063;50.878;4.742;2022-09-16T08:06:18;4.60;;;1.57;;
10045;SDS011;5063;50.878;4.742;2022-09-16T08:08:46;3.97;;;1.20;;
10045;SDS011;5063;50.878;4.742;2022-09-16T08:11:12;3.00;;;1.40;;
10045;SDS011;5063;50.878;4.742;2022-09-16T08:13:40;6.37;;;1.70;;
10045;SDS011;5063;50.878;4.742;2022-09-16T08:16:07;3.33;;;1.70;;
10045;SDS011;5063;50.878;4.742;2022-09-16T08:18:35;6.00;;;1.70;;
10045;SDS011;5063;50.878;4.742;2022-09-16T08:21:05;5.87;;;1.90;;
10045;SDS011;5063;50.878;4.742;2022-09-16T08:23:33;5.57;;;1.67;;
10045;SDS011;5063;50.878;4.742;2022-09-16T08:25:59;7.00;;;1.67;;
10045;SDS011;5063;50.878;4.742;2022-09-16T08:28:26;5.90;;;2.00;;
10045;SDS011;5063;50.878;4.742;2022-09-16T08:30:52;5.50;;;1.77;;
10045;SDS011;5063;50.878;4.742;2022-09-16T08:33:18;3.67;;;1.30;;
10045;SDS011;5063;50.878;4.742;2022-09-16T08:35:45;4.03;;;1.63;;
10045;SDS011;5063;50.878;4.742;2022-09-16T08:38:11;6.53;;;1.93;;
10045;SDS011;5063;50.878;4.742;2022-09-16T08:40:41;3.70;;;1.30;;
10045;SDS011;5063;50.878;4.742;2022-09-16T08:43:11;3.57;;;1.57;;
10045;SDS011;5063;50.878;4.742;2022-09-16T08:45:48;4.40;;;1.70;;
10045;SDS011;5063;50.878;4.742;2022-09-16T08:48:26;7.93;;;1.70;;
10045;SDS011;5063;50.878;4.742;2022-09-16T08:51:17;4.10;;;1.40;;
10045;SDS011;5063;50.878;4.742;2022-09-16T08:53:46;2.03;;;1.27;;
10045;SDS011;5063;50.878;4.742;2022-09-16T08:56:14;3.23;;;1.47;;
10045;SDS011;5063;50.878;4.742;2022-09-16T08:58:47;3.93;;;1.40;;
10045;SDS011;5063;50.878;4.742;2022-09-16T09:01:28;3.13;;;1.37;;
10045;SDS011;5063;50.878;4.742;2022-09-16T09:04:12;5.20;;;1.63;;
10045;SDS011;5063;50.878;4.742;2022-09-16T09:12:14;1.77;;;1.00;;
10045;SDS011;5063;50.878;4.742;2022-09-16T09:26:16;3.30;;;1.50;;
10045;SDS011;5063;50.878;4.742;2022-09-16T09:39:39;1.67;;;1.13;;
10045;SDS011;5063;50.878;4.742;2022-09-16T09:42:37;1.80;;;1.10;;
10045;SDS011;5063;50.878;4.742;2022-09-16T09:45:13;3.87;;;1.20;;
10045;SDS011;5063;50.878;4.742;2022-09-16T09:47:43;5.90;;;1.30;;
10045;SDS011;5063;50.878;4.742;2022-09-16T09:50:15;4.00;;;1.37;;
10045;SDS011;5063;50.878;4.742;2022-09-16T09:55:20;3.70;;;1.20;;
10045;SDS011;5063;50.878;4.742;2022-09-16T09:58:00;1.80;;;1.20;;
10045;SDS011;5063;50.878;4.742;2022-09-16T10:00:37;3.73;;;1.30;;
10045;SDS011;5063;50.878;4.742;2022-09-16T10:03:05;3.43;;;1.00;;
10045;SDS011;5063;50.878;4.742;2022-09-16T10:05:34;5.73;;;1.43;;
10045;SDS011;5063;50.878;4.742;2022-09-16T10:08:08;4.03;;;1.17;;
10045;SDS011;5063;50.878;4.742;2022-09-16T10:10:43;4.53;;;1.50;;
10045;SDS011;5063;50.878;4.742;2022-09-16T10:13:15;3.37;;;1.10;;
10045;SDS011;5063;50.878;4.742;2022-09-16T10:15:41;2.00;;;1.07;;
10045;SDS011;5063;50.878;4.742;2022-09-16T10:18:11;2.37;;;1.30;;
10045;SDS011;5063;50.878;4.742;2022-09-16T10:20:53;2.37;;;1.20;;
10045;SDS011;5063;50.878;4.742;2022-09-16T10:23:28;1.43;;;1.00;;
10045;SDS011;5063;50.878;4.742;2022-09-16T10:28:52;3.20;;;1.53;;
10045;SDS011;5063;50.878;4.742;2022-09-16T10:31:19;1.73;;;0.90;;
10045;SDS011;5063;50.878;4.742;2022-09-16T10:33:46;2.03;;;1.37;;
10045;SDS011;5063;50.878;4.742;2022-09-16T10:36:19;2.20;;;0.80;;
10045;SDS011;5063;50.878;4.742;2022-09-16T10:38:52;2.17;;;0.67;;
10045;SDS011;5063;50.878;4.742;2022-09-16T10:41:22;1.80;;;0.87;;
10045;SDS011;5063;50.878;4.742;2022-09-16T10:43:53;2.13;;;0.77;;
10045;SDS011;5063;50.878;4.742;2022-09-16T10:46:22;2.47;;;1.00;;
10045;SDS011;5063;50.878;4.742;2022-09-16T10:48:49;3.60;;;1.00;;
10045;SDS011;5063;50.878;4.742;2022-09-16T10:51:25;3.90;;;1.13;;
10045;SDS011;5063;50.878;4.742;2022-09-16T10:53:53;2.03;;;0.93;;
10045;SDS011;5063;50.878;4.742;2022-09-16T10:56:27;1.23;;;0.80;;
10045;SDS011;5063;50.878;4.742;2022-09-16T11:08:11;2.10;;;0.70;;
10045;SDS011;5063;50.878;4.742;2022-09-16T11:13:50;4.93;;;0.90;;
10045;SDS011;5063;50.878;4.742;2022-09-16T11:45:56;2.17;;;1.20;;
10045;SDS011;5063;50.878;4.742;2022-09-16T11:56:05;2.20;;;0.83;;
10045;SDS011;5063;50.878;4.742;2022-09-16T12:04:11;1.27;;;0.97;;
10045;SDS011;5063;50.878;4.742;2022-09-16T12:06:43;1.50;;;0.90;;
10045;SDS011;5063;50.878;4.742;2022-09-16T12:09:12;1.90;;;1.17;;
10045;SDS011;5063;50.878;4.742;2022-09-16T12:11:53;2.87;;;1.00;;
10045;SDS011;5063;50.878;4.742;2022-09-16T12:14:28;2.67;;;1.07;;
10045;SDS011;5063;50.878;4.742;2022-09-16T12:17:30;4.27;;;1.30;;
10045;SDS011;5063;50.878;4.742;2022-09-16T12:20:43;2.27;;;0.90;;
10045;SDS011;5063;50.878;4.742;2022-09-16T12:22:50;5.00;;;1.30;;
10045;SDS011;5063;50.878;4.742;2022-09-16T12:31:18;2.40;;;1.17;;
10045;SDS011;5063;50.878;4.742;2022-09-16T12:34:00;1.47;;;1.00;;
10045;SDS011;5063;50.878;4.742;2022-09-16T12:36:40;2.80;;;1.37;;
10045;SDS011;5063;50.878;4.742;2022-09-16T12:39:10;3.00;;;1.60;;
10045;SDS011;5063;50.878;4.742;2022-09-16T12:47:30;4.70;;;1.40;;
10045;SDS011;5063;50.878;4.742;2022-09-16T13:03:39;1.37;;;0.63;;
10045;SDS011;5063;50.878;4.742;2022-09-16T13:06:23;2.67;;;0.80;;
10045;SDS011;5063;50.878;4.742;2022-09-16T13:08:56;2.53;;;0.73;;
10045;SDS011;5063;50.878;4.742;2022-09-16T13:11:58;4.10;;;1.10;;
10045;SDS011;5063;50.878;4.742;2022-09-16T13:14:28;3.50;;;0.80;;
10045;SDS011;5063;50.878;4.742;2022-09-16T13:16:57;2.17;;;0.83;;
10045;SDS011;5063;50.878;4.742;2022-09-16T13:19:26;2.67;;;0.83;;
10045;SDS011;5063;50.878;4.742;2022-09-16T13:22:21;1.67;;;0.90;;
10045;SDS011;5063;50.878;4.742;2022-09-16T13:27:26;2.23;;;1.00;;
10045;SDS011;5063;50.878;4.742;2022-09-16T13:30:11;2.30;;;1.00;;
10045;SDS011;5063;50.878;4.742;2022-09-16T13:32:43;1.07;;;0.87;;
10045;SDS011;5063;50.878;4.742;2022-09-16T13:37:48;1.37;;;0.80;;
10045;SDS011;5063;50.878;4.742;2022-09-16T13:40:23;4.70;;;1.23;;
10045;SDS011;5063;50.878;4.742;2022-09-16T13:42:50;1.10;;;1.00;;
10045;SDS011;5063;50.878;4.742;2022-09-16T13:50:45;2.37;;;0.93;;
10045;SDS011;5063;50.878;4.742;2022-09-16T13:53:31;3.00;;;1.17;;
10045;SDS011;5063;50.878;4.742;2022-09-16T13:59:07;1.47;;;0.80;;
10045;SDS011;5063;50.878;4.742;2022-09-16T14:01:51;2.40;;;0.87;;
10045;SDS011;5063;50.878;4.742;2022-09-16T14:10:25;2.13;;;1.20;;
10045;SDS011;5063;50.878;4.742;2022-09-16T14:13:00;2.70;;;0.90;;
10045;SDS011;5063;50.878;4.742;2022-09-16T14:15:48;1.37;;;1.00;;
10045;SDS011;5063;50.878;4.742;2022-09-16T14:18:30;1.13;;;0.80;;
10045;SDS011;5063;50.878;4.742;2022-09-16T14:23:25;3.23;;;1.07;;
10045;SDS011;5063;50.878;4.742;2022-09-16T14:25:52;1.40;;;1.20;;
10045;SDS011;5063;50.878;4.742;2022-09-16T14:28:22;3.93;;;0.80;;
10045;SDS011;5063;50.878;4.742;2022-09-16T14:30:53;2.33;;;0.87;;
10045;SDS011;5063;50.878;4.742;2022-09-16T14:33:25;1.23;;;1.03;;
10045;SDS011;5063;50.878;4.742;2022-09-16T14:36:13;1.70;;;1.30;;
10045;SDS011;5063;50.878;4.742;2022-09-16T14:41:23;0.87;;;0.67;;
10045;SDS011;5063;50.878;4.742;2022-09-16T14:43:54;5.60;;;1.20;;
10045;SDS011;5063;50.878;4.742;2022-09-16T14:46:25;2.83;;;1.10;;
10045;SDS011;5063;50.878;4.742;2022-09-16T14:48:51;4.87;;;0.90;;
10045;SDS011;5063;50.878;4.742;2022-09-16T14:51:23;1.37;;;0.70;;
10045;SDS011;5063;50.878;4.742;2022-09-16T14:53:58;1.07;;;0.97;;
10045;SDS011;5063;50.878;4.742;2022-09-16T14:56:24;0.93;;;0.77;;
10045;SDS011;5063;50.878;4.742;2022-09-16T14:58:51;0.73;;;0.53;;
10045;SDS011;5063;50.878;4.742;2022-09-16T15:01:25;3.70;;;0.90;;
10045;SDS011;5063;50.878;4.742;2022-09-16T15:06:25;2.33;;;0.77;;
10045;SDS011;5063;50.878;4.742;2022-09-16T15:08:58;1.90;;;0.80;;
10045;SDS011;5063;50.878;4.742;2022-09-16T15:11:48;2.87;;;0.87;;
10045;SDS011;5063;50.878;4.742;2022-09-16T15:14:15;1.77;;;0.70;;
10045;SDS011;5063;50.878;4.742;2022-09-16T15:16:49;0.83;;;0.70;;
10045;SDS011;5063;50.878;4.742;2022-09-16T15:19:19;0.80;;;0.80;;
10045;SDS011;5063;50.878;4.742;2022-09-16T15:21:48;2.17;;;0.83;;
10045;SDS011;5063;50.878;4.742;2022-09-16T15:24:16;1.40;;;0.60;;
10045;SDS011;5063;50.878;4.742;2022-09-16T15:26:55;2.23;;;0.60;;
10045;SDS011;5063;50.878;4.742;2022-09-16T15:31:47;0.50;;;0.50;;
10045;SDS011;5063;50.878;4.742;2022-09-16T15:36:55;1.23;;;0.57;;
10045;SDS011;5063;50.878;4.742;2022-09-16T15:39:27;0.33;;;0.33;;
10045;SDS011;5063;50.878;4.742;2022-09-16T15:47:53;0.63;;;0.40;;
10045;SDS011;5063;50.878;4.742;2022-09-16T15:50:22;1.07;;;0.63;;
10045;SDS011;5063;50.878;4.742;2022-09-16T15:58:15;1.40;;;0.43;;
10045;SDS011;5063;50.878;4.742;2022-09-16T16:03:54;0.50;;;0.47;;
10045;SDS011;5063;50.878;4.742;2022-09-16T16:11:52;0.90;;;0.70;;
10045;SDS011;5063;50.878;4.742;2022-09-16T16:14:22;0.97;;;0.60;;
10045;SDS011;5063;50.878;4.742;2022-09-16T16:16:52;0.83;;;0.70;;
10045;SDS011;5063;50.878;4.742;2022-09-16T16:19:18;2.10;;;0.73;;
10045;SDS011;5063;50.878;4.742;2022-09-16T16:21:43;2.37;;;0.90;;
10045;SDS011;5063;50.878;4.742;2022-09-16T16:24:12;0.53;;;0.50;;
10045;SDS011;5063;50.878;4.742;2022-09-16T16:26:38;1.53;;;0.73;;
10045;SDS011;5063;50.878;4.742;2022-09-16T16:29:04;1.10;;;0.80;;
10045;SDS011;5063;50.878;4.742;2022-09-16T16:31:30;2.20;;;0.83;;
10045;SDS011;5063;50.878;4.742;2022-09-16T16:33:57;1.77;;;0.80;;
10045;SDS011;5063;50.878;4.742;2022-09-16T16:36:23;6.57;;;1.13;;
10045;SDS011;5063;50.878;4.742;2022-09-16T16:38:48;1.37;;;0.97;;
10045;SDS011;5063;50.878;4.742;2022-09-16T16:41:21;2.97;;;1.13;;
10045;SDS011;5063;50.878;4.742;2022-09-16T16:43:48;5.17;;;1.37;;
10045;SDS011;5063;50.878;4.742;2022-09-16T16:46:15;3.30;;;1.17;;
10045;SDS011;5063;50.878;4.742;2022-09-16T16:48:41;4.63;;;1.23;;
10045;SDS011;5063;50.878;4.742;2022-09-16T16:51:09;2.97;;;0.90;;
10045;SDS011;5063;50.878;4.742;2022-09-16T16:53:36;3.33;;;1.50;;
10045;SDS011;5063;50.878;4.742;2022-09-16T16:58:30;1.23;;;0.77;;
10045;SDS011;5063;50.878;4.742;2022-09-16T17:01:05;2.00;;;1.40;;
10045;SDS011;5063;50.878;4.742;2022-09-16T17:03:35;1.67;;;1.00;;
10045;SDS011;5063;50.878;4.742;2022-09-16T17:06:01;1.00;;;0.90;;
10045;SDS011;5063;50.878;4.742;2022-09-16T17:08:27;5.30;;;1.23;;
10045;SDS011;5063;50.878;4.742;2022-09-16T17:11:03;3.03;;;1.00;;
10045;SDS011;5063;50.878;4.742;2022-09-16T17:13:34;2.17;;;0.90;;
10045;SDS011;5063;50.878;4.742;2022-09-16T17:16:04;4.07;;;1.30;;
10045;SDS011;5063;50.878;4.742;2022-09-16T17:18:32;5.13;;;1.23;;
10045;SDS011;5063;50.878;4.742;2022-09-16T17:21:00;2.40;;;1.07;;
10045;SDS011;5063;50.878;4.742;2022-09-16T17:23:27;3.43;;;1.10;;
10045;SDS011;5063;50.878;4.742;2022-09-16T17:25:52;3.03;;;1.30;;
10045;SDS011;5063;50.878;4.742;2022-09-16T17:28:18;2.07;;;1.20;;
10045;SDS011;5063;50.878;4.742;2022-09-16T17:30:44;4.43;;;1.30;;
10045;SDS011;5063;50.878;4.742;2022-09-16T17:33:09;3.47;;;1.10;;
10045;SDS011;5063;50.878;4.742;2022-09-16T17:35:35;4.60;;;1.23;;
10045;SDS011;5063;50.878;4.742;2022-09-16T17:38:01;2.40;;;1.00;;
10045;SDS011;5063;50.878;4.742;2022-09-16T17:40:28;5.40;;;1.43;;
10045;SDS011;5063;50.878;4.742;2022-09-16T17:42:55;1.90;;;0.80;;
10045;SDS011;5063;50.878;4.742;2022-09-16T17:45:21;5.97;;;1.23;;
10045;SDS011;5063;50.878;4.742;2022-09-16T17:47:46;5.63;;;1.20;;
10045;SDS011;5063;50.878;4.742;2022-09-16T17:50:12;3.60;;;1.43;;
10045;SDS011;5063;50.878;4.742;2022-09-16T17:52:38;5.37;;;1.40;;
10045;SDS011;5063;50.878;4.742;2022-09-16T17:55:04;3.47;;;1.13;;
10045;SDS011;5063;50.878;4.742;2022-09-16T17:57:31;2.93;;;1.40;;
10045;SDS011;5063;50.878;4.742;2022-09-16T17:59:56;2.50;;;1.40;;
10045;SDS011;5063;50.878;4.742;2022-09-16T18:02:22;1.80;;;1.07;;
10045;SDS011;5063;50.878;4.742;2022-09-16T18:04:48;5.20;;;1.37;;
10045;SDS011;5063;50.878;4.742;2022-09-16T18:07:15;2.80;;;1.30;;
10045;SDS011;5063;50.878;4.742;2022-09-16T18:09:42;4.87;;;1.37;;
10045;SDS011;5063;50.878;4.742;2022-09-16T18:12:08;1.37;;;1.17;;
10045;SDS011;5063;50.878;4.742;2022-09-16T18:14:34;2.07;;;1.00;;
10045;SDS011;5063;50.878;4.742;2022-09-16T18:17:00;2.90;;;1.10;;
10045;SDS011;5063;50.878;4.742;2022-09-16T18:19:26;1.73;;;1.07;;
10045;SDS011;5063;50.878;4.742;2022-09-16T18:21:52;4.07;;;1.53;;
10045;SDS011;5063;50.878;4.742;2022-09-16T18:24:18;5.53;;;1.77;;
10045;SDS011;5063;50.878;4.742;2022-09-16T18:26:44;5.47;;;1.80;;
10045;SDS011;5063;50.878;4.742;2022-09-16T18:29:10;5.07;;;1.70;;
10045;SDS011;5063;50.878;4.742;2022-09-16T18:31:38;8.10;;;1.60;;
10045;SDS011;5063;50.878;4.742;2022-09-16T18:34:08;4.07;;;1.60;;
10045;SDS011;5063;50.878;4.742;2022-09-16T18:36:34;2.77;;;0.93;;
10045;SDS011;5063;50.878;4.742;2022-09-16T18:39:02;6.63;;;1.60;;
10045;SDS011;5063;50.878;4.742;2022-09-16T18:41:29;4.10;;;1.50;;
10045;SDS011;5063;50.878;4.742;2022-09-16T18:43:59;4.93;;;1.57;;
10045;SDS011;5063;50.878;4.742;2022-09-16T18:46:31;2.13;;;1.13;;
10045;SDS011;5063;50.878;4.742;2022-09-16T18:48:58;1.20;;;1.10;;
10045;SDS011;5063;50.878;4.742;2022-09-16T18:51:29;1.93;;;1.23;;
10045;SDS011;5063;50.878;4.742;2022-09-16T18:53:58;2.83;;;1.20;;
10045;SDS011;5063;50.878;4.742;2022-09-16T18:56:27;4.47;;;1.40;;
10045;SDS011;5063;50.878;4.742;2022-09-16T18:59:03;3.00;;;1.37;;
10045;SDS011;5063;50.878;4.742;2022-09-16T19:01:30;2.87;;;1.70;;
10045;SDS011;5063;50.878;4.742;2022-09-16T19:03:58;1.43;;;1.10;;